Time;durP1;ratioP1;P1;durP2;ratioP2;P2;SDS_P1;SDS_P2;PMS_P1;PMS_P2;Temp;Humidity;BMP_temperature;BMP_pressure;BME280_temperature;BME280_humidity;BME280_pressure;Samples;Min_cycle;Max_cycle;Signal;HPM_P1;HPM_P2
2022/10/21 00:00:59;;;;;;;12.52;7.32;;;15.90;99.90;;;;;;5034571;28;20199;-64
2022/10/21 00:03:26;;;;;;;13.15;7.80;;;15.90;99.90;;;;;;5034331;28;20240;-64
2022/10/21 00:05:52;;;;;;;15.25;8.85;;;15.90;99.90;;;;;;5034584;28;20179;-66
2022/10/21 00:08:19;;;;;;;17.23;9.23;;;15.80;99.90;;;;;;5034683;28;20182;-64
2022/10/21 00:10:49;;;;;;;14.48;8.20;;;15.80;99.90;;;;;;5034421;28;20179;-64
2022/10/21 00:13:14;;;;;;;11.55;8.43;;;15.80;99.90;;;;;;5032895;28;20341;-64
2022/10/21 00:15:40;;;;;;;14.70;8.73;;;15.80;99.90;;;;;;5034428;28;20604;-64
2022/10/21 00:18:06;;;;;;;15.60;9.60;;;15.70;99.90;;;;;;5034002;28;20183;-64
2022/10/21 00:20:33;;;;;;;14.27;9.43;;;15.70;99.90;;;;;;5034771;28;20214;-64
2022/10/21 00:22:58;;;;;;;18.27;10.07;;;15.60;99.90;;;;;;5032709;28;20257;-64
2022/10/21 00:25:24;;;;;;;21.10;9.32;;;15.60;99.90;;;;;;5033905;28;20610;-64
2022/10/21 00:27:50;;;;;;;16.75;9.35;;;15.60;99.90;;;;;;5033671;28;20201;-64
2022/10/21 00:30:15;;;;;;;15.00;9.68;;;15.60;99.90;;;;;;5032582;28;20175;-64
2022/10/21 00:32:41;;;;;;;16.17;9.57;;;15.60;99.90;;;;;;5034059;28;20545;-64
2022/10/21 00:35:07;;;;;;;14.27;9.50;;;15.60;99.90;;;;;;5033861;28;20168;-64
2022/10/21 00:37:33;;;;;;;12.88;9.25;;;15.60;99.90;;;;;;5032996;28;20179;-64
2022/10/21 00:39:58;;;;;;;16.48;9.95;;;15.60;99.90;;;;;;5033610;28;20567;-64
2022/10/21 00:42:32;;;;;;;24.45;9.50;;;15.60;99.90;;;;;;5033688;28;20647;-64
2022/10/21 00:45:04;;;;;;;14.73;8.90;;;15.50;99.90;;;;;;5033670;28;20190;-64
2022/10/21 00:47:33;;;;;;;18.88;10.23;;;15.50;99.90;;;;;;5033560;28;20598;-64
2022/10/21 00:50:04;;;;;;;12.43;9.07;;;15.50;99.90;;;;;;5033653;28;20174;-64
2022/10/21 00:52:32;;;;;;;16.63;9.70;;;15.50;99.90;;;;;;5033579;28;20201;-64
2022/10/21 00:55:02;;;;;;;14.10;9.38;;;15.50;99.90;;;;;;5033506;28;20213;-64
2022/10/21 00:57:29;;;;;;;12.88;8.68;;;15.40;99.90;;;;;;5033359;28;20640;-64
2022/10/21 00:59:58;;;;;;;17.02;10.18;;;15.40;99.90;;;;;;5032165;28;20207;-64
2022/10/21 01:02:25;;;;;;;14.82;9.88;;;15.40;99.90;;;;;;5033552;28;20179;-64
2022/10/21 01:04:53;;;;;;;12.73;8.52;;;15.40;99.90;;;;;;5032084;28;20706;-64
2022/10/21 01:07:19;;;;;;;14.95;9.45;;;15.30;99.90;;;;;;5033466;28;20171;-64
2022/10/21 01:09:45;;;;;;;13.05;9.52;;;15.30;99.90;;;;;;5033716;28;20175;-64
2022/10/21 01:12:32;;;;;;;11.65;8.27;;;15.30;99.90;;;;;;5033296;28;20205;-64
2022/10/21 01:15:06;;;;;;;14.80;8.77;;;15.30;99.90;;;;;;5033336;28;20682;-64
2022/10/21 01:17:49;;;;;;;12.25;8.93;;;15.30;99.90;;;;;;5033210;28;20186;-64
2022/10/21 01:20:34;;;;;;;9.90;7.80;;;15.20;99.90;;;;;;5033218;28;20203;-64
2022/10/21 01:23:36;;;;;;;13.20;9.38;;;15.20;99.90;;;;;;5033246;28;20171;-64
2022/10/21 01:26:14;;;;;;;12.13;9.13;;;15.20;99.90;;;;;;5033076;28;20166;-64
2022/10/21 01:28:39;;;;;;;15.27;9.30;;;15.10;99.90;;;;;;5033376;28;20179;-64
2022/10/21 01:31:25;;;;;;;13.52;9.07;;;15.10;99.90;;;;;;5033303;28;20225;-65
2022/10/21 01:34:16;;;;;;;14.75;9.38;;;15.10;99.90;;;;;;5033582;28;20218;-65
2022/10/21 01:36:53;;;;;;;15.68;8.90;;;15.10;99.90;;;;;;5033060;28;20183;-65
2022/10/21 01:39:31;;;;;;;14.75;9.32;;;15.20;99.90;;;;;;5033056;28;20167;-64
2022/10/21 01:42:13;;;;;;;15.25;9.13;;;15.20;99.90;;;;;;5033069;28;20155;-64
2022/10/21 01:45:08;;;;;;;13.40;9.13;;;15.10;99.90;;;;;;5033306;28;20265;-64
2022/10/21 01:47:38;;;;;;;10.98;8.68;;;15.10;99.90;;;;;;5034436;28;20270;-64
2022/10/21 01:50:14;;;;;;;11.55;7.47;;;15.10;99.90;;;;;;5037085;28;20163;-64
2022/10/21 01:52:42;;;;;;;11.18;7.63;;;15.10;99.90;;;;;;5037065;28;20204;-65
2022/10/21 01:55:15;;;;;;;10.18;8.02;;;15.00;99.90;;;;;;5037186;28;20262;-64
2022/10/21 01:57:46;;;;;;;11.68;7.72;;;15.00;99.90;;;;;;5036703;28;20270;-64
2022/10/21 02:00:12;;;;;;;13.02;8.13;;;15.00;99.90;;;;;;5036860;28;20546;-64
2022/10/21 02:02:43;;;;;;;10.15;7.43;;;14.90;99.90;;;;;;5036986;28;20187;-64
2022/10/21 02:05:16;;;;;;;12.05;7.78;;;14.90;99.90;;;;;;5036931;28;20163;-65
2022/10/21 02:07:42;;;;;;;11.60;7.97;;;14.80;99.90;;;;;;5036691;28;20167;-65
2022/10/21 02:10:08;;;;;;;12.02;8.10;;;14.80;99.90;;;;;;5036835;28;20178;-65
2022/10/21 02:12:36;;;;;;;12.07;9.00;;;14.70;99.90;;;;;;5036370;28;20532;-64
2022/10/21 02:15:05;;;;;;;12.80;8.93;;;14.70;99.90;;;;;;5036357;28;20199;-64
2022/10/21 02:17:35;;;;;;;12.07;8.68;;;14.70;99.90;;;;;;5036313;28;20294;-64
2022/10/21 02:20:05;;;;;;;11.43;7.85;;;14.60;99.90;;;;;;5036475;28;20198;-64
2022/10/21 02:22:32;;;;;;;12.45;8.13;;;14.60;99.90;;;;;;5036191;28;20198;-64
2022/10/21 02:25:04;;;;;;;12.35;7.63;;;14.50;99.90;;;;;;5036117;28;20586;-64
2022/10/21 02:27:29;;;;;;;11.07;7.93;;;14.40;99.90;;;;;;5035975;28;20179;-64
2022/10/21 02:29:58;;;;;;;12.48;7.93;;;14.30;99.90;;;;;;5036166;28;20174;-64
2022/10/21 02:33:01;;;;;;;14.48;9.27;;;14.20;99.90;;;;;;5036620;28;20178;-67
2022/10/21 02:36:05;;;;;;;15.43;9.07;;;14.20;99.90;;;;;;5036338;28;20246;-64
2022/10/21 02:38:50;;;;;;;11.02;7.82;;;14.10;99.90;;;;;;5035324;28;20684;-65
2022/10/21 02:41:21;;;;;;;13.00;8.18;;;14.00;99.90;;;;;;5035715;28;20187;-64
2022/10/21 02:44:00;;;;;;;12.65;8.88;;;13.90;99.90;;;;;;5035861;28;20184;-64
2022/10/21 02:46:37;;;;;;;16.13;8.63;;;13.90;99.90;;;;;;5036345;28;20160;-64
2022/10/21 02:49:03;;;;;;;13.35;8.65;;;13.80;99.90;;;;;;5034534;28;20181;-64
2022/10/21 02:51:29;;;;;;;12.95;8.70;;;13.80;99.90;;;;;;5036031;28;20254;-64
2022/10/21 02:53:55;;;;;;;15.10;9.68;;;13.70;99.90;;;;;;5035777;28;20285;-64
2022/10/21 02:56:21;;;;;;;13.55;9.05;;;13.60;99.90;;;;;;5035606;28;20225;-64
2022/10/21 02:58:46;;;;;;;15.75;9.45;;;13.60;99.90;;;;;;5035476;28;20163;-64
2022/10/21 03:01:12;;;;;;;12.95;8.60;;;13.50;99.90;;;;;;5035426;28;20568;-64
2022/10/21 03:03:38;;;;;;;12.90;9.43;;;13.40;99.90;;;;;;5035682;28;20655;-64
2022/10/21 03:06:04;;;;;;;12.77;8.85;;;13.40;99.90;;;;;;5035412;28;20652;-64
2022/10/21 03:08:29;;;;;;;16.33;9.18;;;13.30;99.90;;;;;;5035809;28;20182;-64
2022/10/21 03:10:55;;;;;;;14.65;9.52;;;13.30;99.90;;;;;;5035264;28;20233;-63
2022/10/21 03:13:22;;;;;;;13.98;9.18;;;13.20;99.90;;;;;;5035259;28;20198;-64
2022/10/21 03:15:49;;;;;;;13.65;8.52;;;13.20;99.90;;;;;;5035333;28;20186;-64
2022/10/21 03:18:15;;;;;;;14.77;8.80;;;13.10;99.90;;;;;;5035550;28;20274;-64
2022/10/21 03:20:41;;;;;;;14.88;8.70;;;13.00;99.90;;;;;;5033903;28;20664;-64
2022/10/21 03:23:07;;;;;;;13.77;8.73;;;13.00;99.90;;;;;;5035123;28;20610;-64
2022/10/21 03:25:33;;;;;;;13.90;8.80;;;13.00;99.90;;;;;;5035146;28;20167;-64
2022/10/21 03:27:58;;;;;;;11.82;8.98;;;12.90;99.90;;;;;;5034801;28;20198;-64
2022/10/21 03:30:24;;;;;;;14.15;8.40;;;12.90;99.90;;;;;;5035118;28;20233;-64
2022/10/21 03:32:50;;;;;;;15.05;9.43;;;12.80;99.90;;;;;;5034953;28;20229;-64
2022/10/21 03:35:16;;;;;;;10.63;7.68;;;12.80;99.90;;;;;;5035289;28;20253;-64
2022/10/21 03:37:41;;;;;;;10.85;8.48;;;12.80;99.90;;;;;;5035324;28;20182;-64
2022/10/21 03:40:07;;;;;;;12.63;8.15;;;12.70;99.90;;;;;;5034709;28;20234;-63
2022/10/21 03:42:33;;;;;;;15.05;9.18;;;12.80;99.90;;;;;;5034793;28;20174;-64
2022/10/21 03:44:59;;;;;;;18.55;9.55;;;12.70;99.90;;;;;;5034627;28;20568;-64
2022/10/21 03:47:25;;;;;;;14.15;8.50;;;12.70;99.90;;;;;;5034818;28;20191;-63
2022/10/21 03:49:50;;;;;;;12.52;8.38;;;12.70;99.90;;;;;;5035249;28;20290;-64
2022/10/21 03:52:16;;;;;;;12.57;7.85;;;12.70;99.90;;;;;;5033383;28;20597;-63
2022/10/21 03:54:42;;;;;;;11.75;7.63;;;12.60;99.90;;;;;;5034459;28;20202;-64
2022/10/21 03:57:07;;;;;;;13.40;8.23;;;12.60;99.90;;;;;;5034493;28;20178;-63
2022/10/21 03:59:33;;;;;;;10.23;7.68;;;12.60;99.90;;;;;;5034358;28;20202;-64
2022/10/21 04:01:59;;;;;;;16.50;8.23;;;12.60;99.90;;;;;;5034926;28;20233;-64
2022/10/21 04:04:25;;;;;;;11.77;7.85;;;12.60;99.90;;;;;;5034388;28;20202;-64
2022/10/21 04:06:50;;;;;;;13.65;7.55;;;12.60;99.90;;;;;;5034547;28;20174;-64
2022/10/21 04:09:16;;;;;;;12.63;7.70;;;12.60;99.90;;;;;;5034964;28;20255;-63
2022/10/21 04:11:42;;;;;;;12.45;7.53;;;12.50;99.90;;;;;;5034703;28;20262;-63
2022/10/21 04:14:07;;;;;;;12.10;7.50;;;12.50;99.90;;;;;;5034486;28;20195;-63
2022/10/21 04:16:33;;;;;;;9.60;7.85;;;12.50;99.90;;;;;;5034607;28;20598;-63
2022/10/21 04:19:00;;;;;;;9.57;6.65;;;12.40;99.90;;;;;;5034185;28;20179;-65
2022/10/21 04:21:25;;;;;;;10.63;7.30;;;12.40;99.90;;;;;;5034017;28;20206;-65
2022/10/21 04:23:51;;;;;;;8.82;6.65;;;12.40;99.90;;;;;;5034412;28;20194;-65
2022/10/21 04:26:17;;;;;;;11.15;7.07;;;12.30;99.90;;;;;;5033889;28;20518;-65
2022/10/21 04:28:42;;;;;;;9.65;6.93;;;12.30;99.90;;;;;;5033753;28;20228;-64
2022/10/21 04:31:08;;;;;;;8.95;6.20;;;12.20;99.90;;;;;;5032824;28;20544;-66
2022/10/21 04:33:34;;;;;;;14.50;7.20;;;12.20;99.90;;;;;;5034009;28;20191;-64
2022/10/21 04:35:59;;;;;;;9.60;6.35;;;12.20;99.90;;;;;;5033679;28;20632;-64
2022/10/21 04:38:26;;;;;;;6.90;4.78;;;12.20;99.90;;;;;;5033881;28;20182;-64
2022/10/21 04:40:56;;;;;;;7.57;4.63;;;12.40;99.90;;;;;;5033459;28;20566;-65
2022/10/21 04:43:22;;;;;;;6.72;4.82;;;12.50;99.90;;;;;;5032331;28;20206;-64
2022/10/21 04:45:48;;;;;;;7.38;4.82;;;12.70;99.90;;;;;;5033779;28;20183;-64
2022/10/21 04:48:13;;;;;;;9.57;4.18;;;12.80;99.90;;;;;;5033552;28;20175;-64
2022/10/21 04:50:39;;;;;;;9.00;4.00;;;13.00;99.90;;;;;;5032264;28;20186;-64
2022/10/21 04:53:05;;;;;;;5.53;4.65;;;13.30;99.90;;;;;;5033689;28;20206;-64
2022/10/21 04:55:30;;;;;;;6.35;4.63;;;13.40;99.90;;;;;;5033470;28;20666;-64
2022/10/21 04:57:56;;;;;;;6.15;4.00;;;13.60;99.90;;;;;;5033320;28;20220;-64
2022/10/21 05:00:22;;;;;;;7.22;4.03;;;13.80;99.90;;;;;;5033801;28;20253;-64
2022/10/21 05:02:48;;;;;;;10.07;4.80;;;13.90;99.90;;;;;;5033612;28;20586;-64
2022/10/21 05:05:13;;;;;;;6.13;4.38;;;14.00;99.90;;;;;;5033325;28;20182;-64
2022/10/21 05:07:39;;;;;;;5.45;4.20;;;14.10;99.90;;;;;;5033945;28;20175;-64
2022/10/21 05:10:05;;;;;;;5.88;4.18;;;14.20;99.90;;;;;;5033850;28;20209;-64
2022/10/21 05:12:31;;;;;;;5.43;4.15;;;14.20;99.90;;;;;;5033104;28;20211;-64
2022/10/21 05:14:59;;;;;;;9.80;4.40;;;14.30;99.90;;;;;;5033196;28;20244;-64
2022/10/21 05:17:25;;;;;;;8.55;4.70;;;14.20;99.90;;;;;;5031917;28;20179;-64
2022/10/21 05:19:51;;;;;;;6.93;4.40;;;14.20;99.90;;;;;;5033131;28;20237;-64
2022/10/21 05:22:16;;;;;;;5.82;3.80;;;14.20;99.90;;;;;;5033753;28;20536;-64
2022/10/21 05:24:42;;;;;;;6.15;4.20;;;14.10;99.90;;;;;;5035963;28;20202;-64
2022/10/21 05:27:08;;;;;;;7.47;4.45;;;14.00;99.90;;;;;;5037088;28;20246;-64
2022/10/21 05:29:33;;;;;;;7.95;4.60;;;14.00;99.90;;;;;;5037210;28;20610;-64
2022/10/21 05:31:59;;;;;;;6.85;4.53;;;14.00;99.90;;;;;;5037090;28;20183;-64
2022/10/21 05:34:25;;;;;;;5.10;4.35;;;13.90;99.90;;;;;;5036951;28;20239;-64
2022/10/21 05:36:50;;;;;;;6.22;4.35;;;13.90;99.90;;;;;;5037313;28;20305;-64
2022/10/21 05:39:16;;;;;;;4.70;4.22;;;13.80;99.90;;;;;;5035703;28;20233;-64
2022/10/21 05:41:42;;;;;;;6.13;4.65;;;13.70;99.90;;;;;;5037327;28;20597;-64
2022/10/21 05:44:07;;;;;;;7.78;4.78;;;13.60;99.90;;;;;;5036851;28;20524;-64
2022/10/21 05:46:33;;;;;;;8.50;5.20;;;13.60;99.90;;;;;;5037098;28;20175;-64
2022/10/21 05:48:59;;;;;;;6.28;4.53;;;13.50;99.90;;;;;;5036741;28;20248;-64
2022/10/21 05:51:25;;;;;;;5.68;4.15;;;13.40;99.90;;;;;;5037361;28;20250;-64
2022/10/21 05:53:54;;;;;;;5.95;4.50;;;13.40;99.90;;;;;;5036975;28;20191;-64
2022/10/21 05:56:21;;;;;;;6.03;4.60;;;13.40;99.90;;;;;;5036562;28;20692;-64
2022/10/21 05:58:46;;;;;;;4.75;4.15;;;13.30;99.90;;;;;;5036659;28;20171;-64
2022/10/21 06:01:13;;;;;;;6.32;4.60;;;13.20;99.90;;;;;;5036602;28;20585;-64
2022/10/21 06:03:39;;;;;;;6.75;4.38;;;13.10;99.90;;;;;;5036495;28;20211;-65
2022/10/21 06:06:07;;;;;;;6.30;4.47;;;13.10;99.90;;;;;;5036804;28;20666;-64
2022/10/21 06:08:35;;;;;;;6.00;4.30;;;13.00;99.90;;;;;;5036539;28;20282;-64
2022/10/21 06:11:17;;;;;;;5.50;4.63;;;12.90;99.90;;;;;;5036406;28;20179;-64
2022/10/21 06:13:43;;;;;;;7.15;4.60;;;12.90;99.90;;;;;;5035062;28;20199;-64
2022/10/21 06:16:10;;;;;;;7.72;4.35;;;12.80;99.90;;;;;;5036306;28;20175;-64
2022/10/21 06:18:36;;;;;;;7.13;4.90;;;12.70;99.90;;;;;;5034922;28;20233;-64
2022/10/21 06:21:02;;;;;;;6.60;4.70;;;12.70;99.90;;;;;;5036142;28;20558;-63
2022/10/21 06:23:28;;;;;;;8.50;5.00;;;12.70;99.90;;;;;;5036325;28;20199;-64
2022/10/21 06:26:02;;;;;;;7.40;4.60;;;12.70;99.90;;;;;;5036524;28;20179;-64
2022/10/21 06:28:30;;;;;;;6.38;4.53;;;12.70;99.90;;;;;;5035950;28;20182;-64
2022/10/21 06:30:56;;;;;;;5.97;4.28;;;12.70;99.90;;;;;;5036272;28;20198;-64
2022/10/21 06:33:22;;;;;;;7.13;4.90;;;12.80;99.90;;;;;;5035347;28;20671;-64
2022/10/21 06:35:47;;;;;;;5.18;3.85;;;12.80;99.90;;;;;;5035213;28;20203;-64
2022/10/21 06:38:14;;;;;;;8.75;4.85;;;12.90;99.90;;;;;;5036186;28;20183;-64
2022/10/21 06:40:40;;;;;;;6.60;4.28;;;13.00;99.90;;;;;;5035815;28;20685;-64
2022/10/21 06:43:06;;;;;;;5.30;4.03;;;13.10;99.90;;;;;;5035663;28;20278;-64
2022/10/21 06:45:32;;;;;;;6.82;4.80;;;13.30;99.90;;;;;;5035829;28;20254;-64
2022/10/21 06:47:57;;;;;;;7.25;4.72;;;13.50;99.90;;;;;;5035833;28;20636;-64
2022/10/21 06:50:24;;;;;;;5.88;4.45;;;13.60;99.90;;;;;;5036013;28;20171;-64
2022/10/21 06:52:50;;;;;;;7.47;4.57;;;13.70;99.90;;;;;;5035581;28;20171;-64
2022/10/21 06:55:17;;;;;;;5.05;4.28;;;13.70;99.90;;;;;;5035893;28;20182;-64
2022/10/21 06:57:43;;;;;;;7.15;4.30;;;13.70;99.90;;;;;;5035488;28;20179;-64
2022/10/21 07:00:10;;;;;;;6.68;4.38;;;13.70;99.90;;;;;;5035470;28;20198;-64
2022/10/21 07:02:36;;;;;;;5.75;4.15;;;13.70;99.90;;;;;;5035513;28;20167;-64
2022/10/21 07:05:02;;;;;;;4.95;4.07;;;13.70;99.90;;;;;;5035552;28;20191;-65
2022/10/21 07:07:27;;;;;;;6.00;4.30;;;13.70;99.90;;;;;;5034258;28;20587;-64
2022/10/21 07:09:56;;;;;;;6.13;3.90;;;13.70;99.90;;;;;;5035462;28;20171;-65
2022/10/21 07:12:22;;;;;;;6.68;4.13;;;13.70;99.90;;;;;;5035234;28;20182;-65
2022/10/21 07:14:48;;;;;;;5.47;4.38;;;13.70;99.90;;;;;;5035291;28;20198;-65
2022/10/21 07:17:15;;;;;;;5.43;4.38;;;13.70;99.90;;;;;;5035183;28;20286;-65
2022/10/21 07:19:41;;;;;;;5.30;3.97;;;13.80;99.90;;;;;;5035115;28;20203;-64
2022/10/21 07:22:07;;;;;;;8.57;4.50;;;13.80;99.90;;;;;;5035407;28;20166;-64
2022/10/21 07:24:32;;;;;;;6.68;4.20;;;13.80;99.90;;;;;;5034950;28;20196;-65
2022/10/21 07:26:58;;;;;;;5.72;4.40;;;13.80;99.90;;;;;;5034922;28;20179;-65
2022/10/21 07:29:24;;;;;;;5.03;4.28;;;13.80;99.90;;;;;;5034936;28;20183;-64
2022/10/21 07:31:50;;;;;;;4.75;4.20;;;13.90;99.90;;;;;;5035034;28;20167;-64
2022/10/21 07:34:16;;;;;;;5.57;4.35;;;13.90;99.90;;;;;;5034829;28;20199;-64
2022/10/21 07:36:46;;;;;;;4.85;4.07;;;13.90;99.90;;;;;;5035197;28;20314;-64
2022/10/21 07:39:14;;;;;;;8.48;4.28;;;14.00;99.90;;;;;;5034823;28;20184;-65
2022/10/21 07:41:43;;;;;;;6.00;4.35;;;14.00;99.90;;;;;;5034629;28;20254;-64
2022/10/21 07:44:09;;;;;;;5.85;4.03;;;14.10;99.90;;;;;;5034730;28;20241;-64
2022/10/21 07:46:38;;;;;;;4.88;4.22;;;14.10;99.90;;;;;;5032916;28;20207;-64
2022/10/21 07:49:03;;;;;;;7.38;4.28;;;14.10;99.90;;;;;;5034649;28;20251;-65
2022/10/21 07:51:29;;;;;;;5.47;4.20;;;14.20;99.90;;;;;;5034545;28;20175;-65
2022/10/21 07:53:56;;;;;;;5.10;4.18;;;14.20;99.90;;;;;;5035024;28;20202;-65
2022/10/21 07:56:44;;;;;;;4.97;4.05;;;14.20;99.90;;;;;;5034397;28;20171;-64
2022/10/21 07:59:11;;;;;;;4.63;3.97;;;14.20;99.90;;;;;;5034174;28;20721;-64
2022/10/21 08:01:39;;;;;;;8.57;4.88;;;14.30;99.90;;;;;;5034115;28;20203;-64
2022/10/21 08:04:05;;;;;;;5.63;4.40;;;14.40;99.90;;;;;;5033066;28;20217;-64
2022/10/21 08:06:31;;;;;;;6.38;4.13;;;14.40;99.90;;;;;;5034244;28;20628;-64
2022/10/21 08:08:57;;;;;;;9.13;4.55;;;14.50;99.90;;;;;;5034796;28;20186;-64
2022/10/21 08:11:25;;;;;;;6.15;4.32;;;14.60;99.90;;;;;;5034130;28;20731;-64
2022/10/21 08:13:51;;;;;;;6.28;4.68;;;14.60;99.90;;;;;;5034026;28;20203;-64
2022/10/21 08:16:17;;;;;;;7.00;4.20;;;14.60;99.90;;;;;;5034027;28;20171;-64
2022/10/21 08:18:43;;;;;;;8.10;4.80;;;14.60;99.90;;;;;;5034037;28;20181;-64
2022/10/21 08:21:09;;;;;;;8.18;4.90;;;14.70;99.90;;;;;;5033955;28;20227;-64
2022/10/21 08:23:35;;;;;;;7.57;4.43;;;14.70;99.90;;;;;;5033922;28;20667;-64
2022/10/21 08:26:01;;;;;;;8.23;4.75;;;14.80;99.90;;;;;;5032669;28;20175;-64
2022/10/21 08:28:29;;;;;;;6.78;4.47;;;14.80;99.90;;;;;;5033616;28;20721;-64
2022/10/21 08:31:14;;;;;;;10.77;4.97;;;14.80;99.90;;;;;;5033895;28;20706;-64
2022/10/21 08:33:40;;;;;;;8.77;4.85;;;14.90;99.90;;;;;;5033915;28;20281;-64
2022/10/21 08:36:17;;;;;;;5.60;4.05;;;14.90;99.90;;;;;;5033809;28;20171;-64
2022/10/21 08:38:43;;;;;;;6.28;3.97;;;14.90;99.90;;;;;;5034027;28;20167;-64
2022/10/21 08:41:27;;;;;;;6.82;4.20;;;14.90;99.90;;;;;;5033664;28;20209;-64
2022/10/21 08:44:05;;;;;;;5.28;3.85;;;14.90;99.90;;;;;;5033977;28;20606;-64
2022/10/21 08:46:52;;;;;;;6.13;4.13;;;14.90;99.90;;;;;;5033942;28;20162;-64
2022/10/21 08:49:35;;;;;;;8.95;4.78;;;15.00;99.90;;;;;;5033584;28;20262;-64
2022/10/21 08:52:12;;;;;;;7.95;4.65;;;15.00;99.90;;;;;;5033566;28;20178;-64
2022/10/21 08:54:46;;;;;;;7.10;4.00;;;15.00;99.90;;;;;;5033517;28;20187;-64
2022/10/21 08:57:13;;;;;;;5.97;4.90;;;15.00;99.90;;;;;;5032613;28;20193;-64
2022/10/21 08:59:42;;;;;;;7.72;4.97;;;15.00;99.90;;;;;;5032234;28;20210;-64
2022/10/21 09:02:29;;;;;;;8.40;4.90;;;15.00;99.90;;;;;;5033523;28;20172;-64
2022/10/21 09:05:20;;;;;;;8.40;5.50;;;15.00;99.90;;;;;;5033382;28;20656;-64
2022/10/21 09:08:17;;;;;;;11.52;5.85;;;15.00;99.90;;;;;;5033355;28;20179;-64
2022/10/21 09:11:19;;;;;;;11.55;5.47;;;15.20;99.90;;;;;;5032036;28;20183;-64
2022/10/21 09:13:58;;;;;;;10.55;5.32;;;15.40;99.90;;;;;;5031407;28;20219;-64
2022/10/21 09:17:17;;;;;;;7.20;5.13;;;15.40;99.90;;;;;;5033336;28;20163;-65
2022/10/21 09:20:13;;;;;;;10.18;5.65;;;15.60;99.90;;;;;;4989985;28;20207;-64
2022/10/21 09:23:03;;;;;;;10.15;6.18;;;15.70;99.90;;;;;;5013854;28;20243;-64
2022/10/21 09:25:32;;;;;;;10.38;5.50;;;15.80;99.90;;;;;;5013609;28;20501;-65
2022/10/21 09:28:00;;;;;;;18.52;6.00;;;15.80;99.90;;;;;;5012125;28;20199;-64
2022/10/21 09:30:26;;;;;;;9.00;5.20;;;15.80;99.90;;;;;;5013494;28;20219;-64
2022/10/21 09:32:59;;;;;;;7.93;5.70;;;15.80;99.90;;;;;;5013391;28;20207;-65
2022/10/21 09:35:43;;;;;;;10.73;5.57;;;15.70;99.90;;;;;;5013766;28;20258;-64
2022/10/21 09:38:25;;;;;;;13.27;5.55;;;15.70;99.90;;;;;;5013430;28;20255;-64
2022/10/21 09:40:58;;;;;;;9.95;5.50;;;15.60;99.90;;;;;;5013611;28;20215;-64
2022/10/21 09:43:26;;;;;;;9.88;6.20;;;15.60;99.90;;;;;;5011905;28;20211;-64
2022/10/21 09:45:52;;;;;;;11.10;6.68;;;15.50;99.90;;;;;;5013856;28;20176;-64
2022/10/21 09:48:18;;;;;;;11.30;6.35;;;15.40;99.90;;;;;;5023940;28;20175;-64
2022/10/21 09:50:58;;;;;;;10.80;6.15;;;15.40;99.90;;;;;;5032975;28;20262;-64
2022/10/21 09:53:36;;;;;;;11.68;6.05;;;15.30;99.90;;;;;;5031732;28;20202;-64
2022/10/21 09:56:08;;;;;;;11.32;6.25;;;15.20;99.90;;;;;;5033662;28;20170;-64
2022/10/21 09:58:37;;;;;;;12.25;6.30;;;15.20;99.90;;;;;;5033064;28;20163;-64
2022/10/21 10:01:04;;;;;;;12.93;7.10;;;15.10;99.90;;;;;;5032957;28;20203;-64
2022/10/21 10:03:34;;;;;;;14.20;7.13;;;15.10;99.90;;;;;;5031607;28;20571;-64
2022/10/21 10:06:01;;;;;;;14.35;6.88;;;15.10;99.90;;;;;;5031584;28;20210;-63
2022/10/21 10:08:40;;;;;;;12.80;7.53;;;15.00;99.90;;;;;;5033588;28;20175;-64
2022/10/21 10:11:09;;;;;;;13.70;7.10;;;15.00;99.90;;;;;;5036513;28;20205;-64
2022/10/21 10:13:43;;;;;;;10.68;6.75;;;15.00;99.90;;;;;;5036197;28;20203;-64
2022/10/21 10:16:15;;;;;;;16.83;7.22;;;15.00;99.90;;;;;;5035168;28;20179;-63
2022/10/21 10:18:41;;;;;;;12.90;6.82;;;14.90;99.90;;;;;;5036255;28;20183;-64
2022/10/21 10:21:16;;;;;;;11.82;6.88;;;15.00;99.90;;;;;;5034924;28;20683;-63
2022/10/21 10:23:53;;;;;;;11.18;6.82;;;15.00;99.90;;;;;;5035035;28;20582;-63
2022/10/21 10:26:25;;;;;;;8.95;6.75;;;15.00;99.90;;;;;;5036228;28;20159;-63
2022/10/21 10:28:55;;;;;;;10.90;6.93;;;15.00;99.90;;;;;;5036034;28;20187;-63
2022/10/21 10:31:31;;;;;;;10.00;6.72;;;15.00;99.90;;;;;;5036410;28;20651;-63
2022/10/21 10:34:05;;;;;;;11.23;7.15;;;15.00;99.90;;;;;;5035156;28;20214;-63
2022/10/21 10:36:37;;;;;;;12.40;7.55;;;14.90;99.90;;;;;;5036318;28;20159;-63
2022/10/21 10:39:07;;;;;;;11.95;7.30;;;14.90;99.90;;;;;;5036031;28;20183;-63
2022/10/21 10:41:44;;;;;;;12.98;7.65;;;14.90;99.90;;;;;;5035765;28;20698;-63
2022/10/21 10:44:33;;;;;;;13.60;8.95;;;14.90;99.90;;;;;;5036120;28;20195;-63
2022/10/21 10:47:01;;;;;;;14.45;8.15;;;14.90;99.90;;;;;;5036364;28;20521;-64
2022/10/21 10:49:38;;;;;;;13.55;7.90;;;14.90;99.90;;;;;;5036381;28;20206;-63
2022/10/21 10:52:21;;;;;;;10.93;6.80;;;14.90;99.90;;;;;;5036122;28;20159;-63
2022/10/21 10:54:47;;;;;;;11.02;7.18;;;15.00;99.90;;;;;;5035641;28;20706;-64
2022/10/21 10:57:26;;;;;;;11.57;7.55;;;15.00;99.90;;;;;;5035503;28;20632;-64
2022/10/21 11:00:13;;;;;;;12.02;7.00;;;15.00;99.90;;;;;;5035784;28;20298;-63
2022/10/21 11:02:57;;;;;;;11.38;6.95;;;15.10;99.90;;;;;;5035525;28;20195;-63
2022/10/21 11:05:36;;;;;;;11.55;6.72;;;15.10;99.90;;;;;;5034200;28;20171;-64
2022/10/21 11:08:13;;;;;;;11.38;6.70;;;15.10;99.90;;;;;;5035725;28;20211;-64
2022/10/21 11:10:43;;;;;;;8.27;6.32;;;15.10;99.90;;;;;;5035926;28;20178;-64
2022/10/21 11:13:16;;;;;;;7.75;6.55;;;15.10;99.90;;;;;;5035268;28;20199;-64
2022/10/21 11:16:15;;;;;;;12.98;7.88;;;15.10;99.90;;;;;;5035562;28;20164;-63
2022/10/21 11:18:51;;;;;;;11.35;8.02;;;15.10;99.90;;;;;;5035146;28;20195;-64
2022/10/21 11:21:42;;;;;;;8.93;7.65;;;15.20;99.90;;;;;;5034558;28;20209;-63
2022/10/21 11:24:19;;;;;;;15.18;7.45;;;15.20;99.90;;;;;;5035324;28;20190;-64
2022/10/21 11:26:59;;;;;;;10.45;6.78;;;15.20;99.90;;;;;;5034998;28;20152;-64
2022/10/21 11:29:49;;;;;;;10.52;7.15;;;15.30;99.90;;;;;;5034921;28;20194;-64
2022/10/21 11:32:41;;;;;;;14.88;7.00;;;15.30;99.90;;;;;;5035163;28;20682;-64
2022/10/21 11:35:30;;;;;;;8.38;6.55;;;15.30;99.90;;;;;;5034688;28;20585;-64
2022/10/21 11:38:15;;;;;;;11.38;6.72;;;15.30;99.90;;;;;;5034687;28;20527;-64
2022/10/21 11:41:05;;;;;;;11.98;7.50;;;15.20;99.90;;;;;;5034823;28;20190;-63
2022/10/21 11:43:43;;;;;;;10.05;6.78;;;15.20;99.90;;;;;;5034585;28;20282;-64
2022/10/21 11:46:27;;;;;;;12.85;6.93;;;15.20;99.90;;;;;;5034468;28;20163;-64
2022/10/21 11:49:14;;;;;;;11.70;6.90;;;15.20;99.90;;;;;;5034470;28;20179;-63
2022/10/21 11:51:51;;;;;;;9.88;6.47;;;15.20;99.90;;;;;;5035016;28;20590;-63
2022/10/21 11:54:44;;;;;;;12.60;6.40;;;15.20;99.90;;;;;;5034534;28;20191;-64
2022/10/21 11:57:47;;;;;;;10.18;6.82;;;15.20;99.90;;;;;;5034352;28;20163;-64
2022/10/21 12:00:25;;;;;;;11.70;7.28;;;15.20;99.90;;;;;;5005212;28;20215;-64
2022/10/21 12:02:53;;;;;;;14.60;8.00;;;15.20;99.90;;;;;;5032837;28;20218;-64
2022/10/21 12:05:24;;;;;;;12.07;7.10;;;15.20;99.90;;;;;;5032728;28;20175;-64
2022/10/21 12:08:09;;;;;;;11.00;7.10;;;15.20;99.90;;;;;;5032849;28;20169;-64
2022/10/21 12:10:44;;;;;;;11.00;6.68;;;15.30;99.90;;;;;;5034149;28;20160;-63
2022/10/21 12:13:19;;;;;;;10.65;6.35;;;15.30;99.90;;;;;;5034320;28;20199;-63
2022/10/21 12:15:55;;;;;;;9.57;5.65;;;15.30;99.90;;;;;;5034058;28;20167;-64
2022/10/21 12:18:22;;;;;;;10.45;5.72;;;15.40;99.90;;;;;;5034297;28;20181;-64
2022/10/21 12:20:52;;;;;;;10.77;5.40;;;15.40;99.90;;;;;;5033884;28;20199;-63
2022/10/21 12:23:29;;;;;;;10.20;5.65;;;15.40;99.90;;;;;;5034159;28;20183;-64
2022/10/21 12:26:17;;;;;;;10.30;6.13;;;15.50;99.90;;;;;;5033910;28;20238;-64
2022/10/21 12:28:58;;;;;;;8.88;6.65;;;15.60;99.90;;;;;;5033812;28;20194;-64
2022/10/21 12:31:46;;;;;;;7.82;5.55;;;15.70;99.90;;;;;;5034064;28;20253;-64
2022/10/21 12:34:12;;;;;;;7.35;5.43;;;15.90;99.90;;;;;;5032684;28;20209;-64
2022/10/21 12:36:50;;;;;;;7.50;5.47;;;15.90;99.90;;;;;;5033802;28;20171;-64
2022/10/21 12:39:34;;;;;;;8.27;5.38;;;15.90;99.90;;;;;;5033784;28;20213;-64
2022/10/21 12:42:29;;;;;;;8.15;5.05;;;15.90;99.90;;;;;;5034098;28;20175;-64
2022/10/21 12:44:55;;;;;;;7.35;4.13;;;15.80;99.90;;;;;;5032480;28;20211;-63
2022/10/21 12:47:33;;;;;;;8.18;4.65;;;15.80;99.90;;;;;;5032444;28;20190;-64
2022/10/21 12:50:13;;;;;;;6.75;4.35;;;15.90;99.90;;;;;;5033524;28;20171;-64
2022/10/21 12:52:40;;;;;;;7.47;4.70;;;16.10;99.90;;;;;;5033759;28;20160;-64
2022/10/21 12:55:20;;;;;;;4.75;3.88;;;16.40;99.90;;;;;;5033376;28;20187;-64
2022/10/21 12:57:59;;;;;;;12.35;4.28;;;16.50;99.90;;;;;;5033405;28;20621;-64
2022/10/21 13:00:28;;;;;;;6.18;3.42;;;16.70;99.90;;;;;;5033503;28;20195;-64
2022/10/21 13:03:03;;;;;;;6.07;3.10;;;16.90;99.90;;;;;;5033247;28;20176;-64